createdAt,value
2022-12-28T00:00:08.194Z,1.21
2022-12-28T00:06:04.663Z,1.20
2022-12-28T00:11:35.629Z,1.18
2022-12-28T00:17:06.867Z,1.15
2022-12-28T00:22:37.978Z,1.12
2022-12-28T00:28:09.311Z,1.08
2022-12-28T00:33:40.411Z,1.07
2022-12-28T00:39:11.867Z,1.07
2022-12-28T00:44:43.100Z,1.05
2022-12-28T00:50:14.068Z,1.04
2022-12-28T00:55:45.061Z,1.04
2022-12-28T01:01:21.387Z,1.01
2022-12-28T01:06:52.623Z,1.02
2022-12-28T01:12:23.606Z,1.00
2022-12-28T01:17:54.757Z,0.99
2022-12-28T01:23:25.832Z,0.94
2022-12-28T01:28:58.710Z,0.94
2022-12-28T01:34:29.979Z,0.90
2022-12-28T01:40:01.087Z,0.87
2022-12-28T01:45:32.432Z,0.86
2022-12-28T01:51:04.350Z,0.82
2022-12-28T01:56:36.364Z,0.79
2022-12-28T02:02:08.319Z,0.78
2022-12-28T02:08:11.301Z,0.75
2022-12-28T02:13:47.953Z,0.73
2022-12-28T02:19:25.325Z,0.70
2022-12-28T02:25:13.861Z,0.68
2022-12-28T02:30:55.504Z,0.64
2022-12-28T02:36:32.411Z,0.62
2022-12-28T02:42:04.900Z,0.59
2022-12-28T02:47:55.853Z,0.57
2022-12-28T02:53:38.928Z,0.56
2022-12-28T02:59:25.752Z,0.54
2022-12-28T03:05:47.688Z,0.50
2022-12-28T03:11:24.076Z,0.48
2022-12-28T03:17:17.816Z,0.46
2022-12-28T03:23:08.645Z,0.41
2022-12-28T03:29:02.844Z,0.41
2022-12-28T03:34:35.265Z,0.41
2022-12-28T03:40:12.640Z,0.41
2022-12-28T03:46:05.178Z,0.39
2022-12-28T03:51:36.877Z,0.38
2022-12-28T03:57:17.220Z,0.38
2022-12-28T04:02:53.837Z,0.38
2022-12-28T04:08:25.570Z,0.36
2022-12-28T04:13:58.291Z,0.34
2022-12-28T04:19:32.879Z,0.33
2022-12-28T04:25:06.546Z,0.31
2022-12-28T04:30:39.818Z,0.31
2022-12-28T04:36:16.418Z,0.30
2022-12-28T04:41:50.326Z,0.32
2022-12-28T04:47:21.302Z,0.31
2022-12-28T04:52:52.801Z,0.29
2022-12-28T04:58:24.135Z,0.27
2022-12-28T05:03:59.531Z,0.26
2022-12-28T05:09:31.327Z,0.25
2022-12-28T05:15:02.419Z,0.25
2022-12-28T05:21:30.393Z,0.23
2022-12-28T05:27:01.896Z,0.22
2022-12-28T05:32:33.058Z,0.21
2022-12-28T05:38:04.319Z,0.21
2022-12-28T05:43:36.104Z,0.21
2022-12-28T05:49:10.443Z,0.21
2022-12-28T05:54:41.719Z,0.21
2022-12-28T06:00:13.092Z,0.21
2022-12-28T06:05:44.394Z,0.20
2022-12-28T06:11:21.108Z,0.20
2022-12-28T06:16:52.390Z,0.20
2022-12-28T06:22:24.083Z,0.20
2022-12-28T06:27:55.443Z,0.18
2022-12-28T06:33:26.980Z,0.17
2022-12-28T06:38:58.998Z,0.16
2022-12-28T06:44:30.030Z,0.16
2022-12-28T06:50:01.721Z,0.14
2022-12-28T06:55:33.159Z,0.13
2022-12-28T07:01:20.087Z,0.12
2022-12-28T07:06:51.619Z,0.16
2022-12-28T07:12:23.040Z,0.16
2022-12-28T07:17:54.422Z,0.18
2022-12-28T07:23:30.181Z,0.18
2022-12-28T07:29:04.071Z,0.22
2022-12-28T07:34:35.443Z,0.27
2022-12-28T07:40:07.426Z,0.27
2022-12-28T07:45:38.536Z,0.27
2022-12-28T07:51:27.332Z,0.31
2022-12-28T07:56:58.477Z,0.30
2022-12-28T08:02:29.972Z,0.29
2022-12-28T08:08:03.721Z,0.35
2022-12-28T08:13:35.854Z,0.34
2022-12-28T08:19:08.372Z,0.44
2022-12-28T08:24:39.723Z,0.48
2022-12-28T08:30:11.934Z,0.48
2022-12-28T08:35:43.132Z,0.51
2022-12-28T08:41:17.450Z,0.51
2022-12-28T08:46:48.823Z,0.51
2022-12-28T08:52:20.251Z,0.50
2022-12-28T08:57:51.592Z,0.53
2022-12-28T09:03:22.858Z,0.49
2022-12-28T09:09:10.579Z,0.49
2022-12-28T09:14:41.779Z,0.58
2022-12-28T09:20:13.045Z,0.57
2022-12-28T09:25:44.531Z,0.55
2022-12-28T09:31:16.257Z,0.59
2022-12-28T09:36:47.942Z,0.61
2022-12-28T09:42:24.627Z,0.66
2022-12-28T09:48:00.375Z,0.63
2022-12-28T09:53:34.559Z,0.63
2022-12-28T09:59:07.164Z,0.64
2022-12-28T10:04:38.497Z,0.68
2022-12-28T10:10:19.470Z,0.74
2022-12-28T10:15:53.602Z,0.77
2022-12-28T10:21:32.313Z,0.78
2022-12-28T10:27:06.906Z,0.81
2022-12-28T10:33:01.825Z,0.86
2022-12-28T10:38:35.125Z,0.86
2022-12-28T10:44:41.234Z,0.92
2022-12-28T10:50:43.036Z,0.96
2022-12-28T10:56:14.202Z,1.02
2022-12-28T11:01:45.298Z,1.08
2022-12-28T11:07:33.092Z,1.14
2022-12-28T11:13:19.913Z,1.19
2022-12-28T11:18:54.352Z,1.25
2022-12-28T11:24:27.617Z,1.31
2022-12-28T11:29:59.067Z,1.38
2022-12-28T11:35:32.694Z,1.45
2022-12-28T11:41:03.933Z,1.50
2022-12-28T11:46:36.942Z,1.54
2022-12-28T11:52:34.364Z,1.59
2022-12-28T11:58:30.408Z,1.63
2022-12-28T12:04:01.854Z,1.68
2022-12-28T12:09:34.074Z,1.71
2022-12-28T12:15:12.531Z,1.74
2022-12-28T12:21:13.330Z,1.78
2022-12-28T12:26:51.099Z,1.79
2022-12-28T12:32:25.794Z,1.82
2022-12-28T12:38:10.634Z,1.87
2022-12-28T12:43:41.533Z,1.91
2022-12-28T12:49:21.671Z,1.96
2022-12-28T12:54:52.801Z,2.01
2022-12-28T13:00:24.824Z,2.06
2022-12-28T13:05:58.226Z,2.11
2022-12-28T13:11:36.793Z,2.16
2022-12-28T13:17:18.118Z,2.23
2022-12-28T13:22:49.464Z,2.28
2022-12-28T13:28:32.307Z,2.31
2022-12-28T13:34:05.287Z,2.36
2022-12-28T13:39:41.859Z,2.40
2022-12-28T13:45:15.933Z,2.41
2022-12-28T13:50:47.237Z,2.42
2022-12-28T13:56:20.284Z,2.46
2022-12-28T14:01:52.706Z,2.46
2022-12-28T14:07:28.308Z,2.46
2022-12-28T14:12:59.666Z,2.47
2022-12-28T14:18:31.968Z,2.48
2022-12-28T14:24:11.106Z,2.49
2022-12-28T14:29:42.339Z,2.49
2022-12-28T14:35:20.293Z,2.48
2022-12-28T14:40:55.428Z,2.48
2022-12-28T14:46:38.332Z,2.48
2022-12-28T14:52:10.478Z,2.45
2022-12-28T14:57:43.261Z,2.43
2022-12-28T15:03:20.963Z,2.42
2022-12-28T15:08:54.404Z,2.42
2022-12-28T15:14:25.919Z,2.42
2022-12-28T15:19:56.920Z,2.43
2022-12-28T15:25:28.592Z,2.41
2022-12-28T15:30:59.744Z,2.40
2022-12-28T15:36:30.960Z,2.39
2022-12-28T15:42:02.412Z,2.38
2022-12-28T15:47:33.897Z,2.38
2022-12-28T15:53:05.258Z,2.35
2022-12-28T15:58:36.253Z,2.34
2022-12-28T16:04:07.431Z,2.33
2022-12-28T16:09:38.949Z,2.31
2022-12-28T16:15:10.664Z,2.29
2022-12-28T16:20:42.020Z,2.28
2022-12-28T16:26:13.754Z,2.26
2022-12-28T16:31:45.276Z,2.25
2022-12-28T16:37:17.116Z,2.25
2022-12-28T16:42:48.383Z,2.25
2022-12-28T16:48:19.454Z,2.23
2022-12-28T16:53:50.633Z,2.23
2022-12-28T16:59:27.029Z,2.21
2022-12-28T17:04:58.120Z,2.19
2022-12-28T17:10:29.909Z,2.17
2022-12-28T17:16:01.201Z,2.16
2022-12-28T17:21:33.374Z,2.15
2022-12-28T17:27:08.492Z,2.12
2022-12-28T17:32:42.175Z,2.10
2022-12-28T17:38:13.763Z,2.10
2022-12-28T17:43:51.839Z,2.09
2022-12-28T17:49:23.525Z,2.10
2022-12-28T17:54:54.697Z,2.11
2022-12-28T18:00:26.443Z,2.09
2022-12-28T18:05:57.479Z,2.09
2022-12-28T18:11:28.504Z,2.08
2022-12-28T18:16:59.564Z,2.09
2022-12-28T18:22:31.326Z,2.08
2022-12-28T18:28:03.190Z,2.09
2022-12-28T18:33:37.169Z,2.08
2022-12-28T18:39:08.831Z,2.08
2022-12-28T18:44:39.902Z,2.08
2022-12-28T18:50:12.543Z,2.07
2022-12-28T18:55:45.608Z,2.07
2022-12-28T19:07:10.463Z,2.07
2022-12-28T19:12:42.737Z,2.07
2022-12-28T19:18:14.009Z,2.07
2022-12-28T19:23:45.884Z,2.07
2022-12-28T19:29:17.232Z,2.07
2022-12-28T19:34:48.637Z,2.06
2022-12-28T19:40:19.813Z,2.07
2022-12-28T19:45:51.477Z,2.06
2022-12-28T19:51:28.691Z,2.05
2022-12-28T19:57:02.113Z,2.04
2022-12-28T20:02:33.684Z,2.04
2022-12-28T20:08:05.092Z,2.05
2022-12-28T20:13:36.333Z,2.05
2022-12-28T20:19:09.323Z,2.03
2022-12-28T20:24:40.622Z,2.04
2022-12-28T20:30:12.954Z,2.05
2022-12-28T20:35:55.330Z,2.05
2022-12-28T20:41:47.920Z,2.04
2022-12-28T20:47:19.307Z,2.03
2022-12-28T20:52:55.699Z,2.03
2022-12-28T20:58:26.775Z,2.03
2022-12-28T21:03:58.100Z,2.03
2022-12-28T21:09:29.374Z,2.03
2022-12-28T21:15:00.862Z,2.02
2022-12-28T21:20:38.616Z,2.02
2022-12-28T21:26:14.321Z,2.02
2022-12-28T21:31:45.640Z,2.01
2022-12-28T21:37:35.466Z,2.01
2022-12-28T21:43:07.024Z,1.99
2022-12-28T21:48:39.203Z,1.99
2022-12-28T21:54:18.961Z,1.99
2022-12-28T21:59:52.573Z,1.98
2022-12-28T22:05:42.703Z,1.97
2022-12-28T22:11:32.834Z,1.95
2022-12-28T22:17:08.381Z,1.95
2022-12-28T22:22:43.902Z,1.93
2022-12-28T22:28:15.156Z,1.91
2022-12-28T22:33:46.644Z,1.90
2022-12-28T22:39:17.638Z,1.91
2022-12-28T22:44:48.644Z,1.90
2022-12-28T22:50:19.966Z,1.90
2022-12-28T22:56:01.821Z,1.88
2022-12-28T23:01:35.078Z,1.88
2022-12-28T23:07:06.364Z,1.85
2022-12-28T23:12:37.637Z,1.85
2022-12-28T23:18:27.366Z,1.84
2022-12-28T23:24:17.538Z,1.84
2022-12-28T23:29:49.093Z,1.83
2022-12-28T23:35:22.170Z,1.83
2022-12-28T23:41:13.073Z,1.82
2022-12-28T23:46:46.282Z,1.81
2022-12-28T23:52:23.825Z,1.81
2022-12-28T23:57:56.869Z,1.81
